Time;durP1;ratioP1;P1;durP2;ratioP2;P2;SDS_P1;SDS_P2;PMS_P1;PMS_P2;Temp;Humidity;BMP_temperature;BMP_pressure;BME280_temperature;BME280_humidity;BME280_pressure;Samples;Min_cycle;Max_cycle;Signal;HPM_P1;HPM_P2
2022/12/22 03:26:55;;;;;;;18.80;13.75;;;10.20;99.90;;;;;;5031342;28;20111;-81
2022/12/22 03:29:21;;;;;;;17.73;14.13;;;10.20;99.90;;;;;;5032813;28;20466;-83
2022/12/22 03:31:46;;;;;;;19.80;14.20;;;10.20;99.90;;;;;;5032376;28;20029;-81
2022/12/22 03:34:12;;;;;;;17.90;13.63;;;10.30;99.90;;;;;;5016954;28;20087;-83
2022/12/22 03:36:37;;;;;;;19.20;13.87;;;10.30;99.90;;;;;;5034665;28;20053;-83
2022/12/22 03:39:03;;;;;;;19.33;14.77;;;10.30;99.90;;;;;;5036173;28;20386;-84
2022/12/22 03:46:57;;;;;;;18.35;13.85;;;10.40;99.90;;;;;;5036191;28;20144;-82
2022/12/22 03:49:25;;;;;;;18.37;13.50;;;10.30;99.90;;;;;;5035656;28;20061;-83
2022/12/22 03:51:51;;;;;;;22.10;12.40;;;10.30;99.90;;;;;;5033991;28;20037;-81
2022/12/22 03:54:24;;;;;;;17.90;12.70;;;10.30;99.90;;;;;;5035362;28;20109;-81
2022/12/22 03:56:51;;;;;;;17.87;12.20;;;10.30;99.90;;;;;;5033707;28;20041;-83
2022/12/22 03:59:17;;;;;;;16.07;11.73;;;10.40;99.90;;;;;;5017623;28;20385;-83
2022/12/22 04:01:51;;;;;;;15.05;10.65;;;10.30;99.90;;;;;;5017590;28;20034;-81
2022/12/22 04:04:19;;;;;;;16.52;11.30;;;10.40;99.90;;;;;;5034253;28;20424;-83
2022/12/22 04:06:45;;;;;;;18.47;12.53;;;10.30;99.90;;;;;;5034071;28;20029;-81
2022/12/22 04:09:11;;;;;;;18.80;13.10;;;10.40;99.90;;;;;;5035668;28;20026;-81
2022/12/22 04:14:22;;;;;;;18.53;12.67;;;10.40;99.90;;;;;;5035347;28;20099;-81
2022/12/22 04:16:48;;;;;;;17.73;12.37;;;10.30;99.90;;;;;;5034892;28;20493;-81
2022/12/22 04:19:14;;;;;;;17.43;12.50;;;10.40;99.90;;;;;;5017477;28;20124;-81
2022/12/22 04:21:41;;;;;;;18.60;13.53;;;10.40;99.90;;;;;;5033664;28;20481;-82
2022/12/22 04:24:07;;;;;;;19.97;14.07;;;10.30;99.90;;;;;;5034686;28;20432;-81
2022/12/22 04:26:33;;;;;;;20.80;14.97;;;10.40;99.90;;;;;;5034776;28;20132;-81
2022/12/22 04:28:58;;;;;;;21.73;14.93;;;10.40;99.90;;;;;;5017069;28;20033;-81
2022/12/22 04:31:24;;;;;;;20.73;15.40;;;10.40;99.90;;;;;;5017081;28;20029;-81
2022/12/22 04:33:50;;;;;;;21.13;14.48;;;10.40;99.90;;;;;;5033182;28;20466;-81
2022/12/22 04:36:16;;;;;;;20.07;14.37;;;10.40;99.90;;;;;;5033157;28;20051;-83
2022/12/22 04:38:42;;;;;;;23.23;15.63;;;10.40;99.90;;;;;;5034351;28;20584;-81
2022/12/22 04:41:08;;;;;;;21.17;15.57;;;10.40;99.90;;;;;;5033465;28;20152;-83
2022/12/22 04:43:34;;;;;;;21.03;14.43;;;10.30;99.90;;;;;;5033049;28;20052;-84
2022/12/22 04:46:00;;;;;;;22.13;14.73;;;10.40;99.90;;;;;;5017248;28;20097;-87
2022/12/22 04:48:27;;;;;;;22.23;16.53;;;10.40;99.90;;;;;;5034932;28;20061;-85
2022/12/22 04:50:55;;;;;;;22.37;16.03;;;10.30;99.90;;;;;;5034145;28;20394;-87
2022/12/22 04:53:22;;;;;;;22.03;15.77;;;10.30;99.90;;;;;;5034634;28;20164;-86
2022/12/22 04:55:49;;;;;;;24.90;14.53;;;10.30;99.90;;;;;;5034876;28;20029;-87
2022/12/22 04:58:15;;;;;;;26.07;15.53;;;10.30;99.90;;;;;;5034137;28;20061;-87
2022/12/22 05:00:42;;;;;;;24.03;17.10;;;10.30;99.90;;;;;;5035845;28;20071;-87
2022/12/22 05:03:08;;;;;;;36.60;16.07;;;10.30;99.90;;;;;;5034373;28;20038;-86
2022/12/22 05:05:34;;;;;;;21.67;15.43;;;10.30;99.90;;;;;;5034416;28;20108;-86
2022/12/22 05:08:00;;;;;;;22.17;14.57;;;10.30;99.90;;;;;;5035609;28;20040;-86
2022/12/22 05:10:26;;;;;;;20.97;14.33;;;10.30;99.90;;;;;;5034010;28;20108;-86
2022/12/22 05:12:55;;;;;;;20.50;14.47;;;10.30;99.90;;;;;;5034705;28;20112;-87
2022/12/22 05:15:22;;;;;;;26.03;16.77;;;10.30;99.90;;;;;;5034045;28;20458;-86
2022/12/22 05:17:48;;;;;;;94.77;14.90;;;10.30;99.90;;;;;;5034640;28;20531;-85
2022/12/22 05:20:14;;;;;;;46.33;12.37;;;10.30;99.90;;;;;;5034457;28;20021;-85
2022/12/22 05:22:39;;;;;;;21.77;14.47;;;10.30;99.90;;;;;;5016491;28;20092;-85
2022/12/22 05:25:05;;;;;;;24.53;16.67;;;10.30;99.90;;;;;;5035497;28;20037;-86
2022/12/22 05:27:31;;;;;;;30.40;18.80;;;10.30;99.90;;;;;;5017402;28;20120;-86
2022/12/22 05:29:56;;;;;;;29.40;18.00;;;10.30;99.90;;;;;;5034205;28;20025;-85
2022/12/22 05:32:22;;;;;;;33.40;18.13;;;10.30;99.90;;;;;;5016966;28;20468;-84
2022/12/22 05:34:48;;;;;;;32.53;19.27;;;10.30;99.90;;;;;;5034054;28;20036;-85
2022/12/22 05:37:13;;;;;;;27.83;18.80;;;10.30;99.90;;;;;;5033646;28;20053;-86
2022/12/22 05:39:39;;;;;;;33.43;19.27;;;10.30;99.90;;;;;;5033957;28;20064;-85
2022/12/22 05:42:04;;;;;;;42.27;19.77;;;10.30;99.90;;;;;;5016229;28;20577;-85
2022/12/22 05:44:30;;;;;;;32.27;18.70;;;10.30;99.90;;;;;;5032441;28;20060;-82
2022/12/22 05:46:56;;;;;;;28.87;19.30;;;10.30;99.90;;;;;;5015774;28;20025;-82
2022/12/22 05:49:21;;;;;;;34.37;18.23;;;10.30;99.90;;;;;;5033723;28;20029;-82
2022/12/22 05:51:47;;;;;;;32.57;18.53;;;10.20;99.90;;;;;;5032251;28;20416;-82
2022/12/22 05:54:13;;;;;;;33.20;19.47;;;10.20;99.90;;;;;;5031912;28;20061;-80
2022/12/22 05:56:38;;;;;;;38.07;20.33;;;10.30;99.90;;;;;;5031392;28;20041;-80
2022/12/22 05:59:04;;;;;;;36.60;18.80;;;10.30;99.90;;;;;;5011600;28;20030;-80
2022/12/22 06:01:30;;;;;;;32.03;18.60;;;10.20;99.90;;;;;;5029559;28;20080;-80
2022/12/22 06:03:55;;;;;;;33.60;18.50;;;10.30;99.90;;;;;;5043961;28;20049;-80
2022/12/22 06:06:21;;;;;;;31.47;19.73;;;10.30;99.90;;;;;;5019231;28;20116;-82
2022/12/22 06:08:46;;;;;;;31.27;20.17;;;10.30;99.90;;;;;;5048122;28;20053;-83
2022/12/22 06:11:16;;;;;;;31.63;19.70;;;10.30;99.90;;;;;;5032131;28;20053;-83
2022/12/22 06:13:43;;;;;;;36.67;19.57;;;10.20;99.90;;;;;;5029435;28;20088;-83
2022/12/22 06:16:09;;;;;;;31.93;19.13;;;10.20;99.90;;;;;;5028670;28;20030;-83
2022/12/22 06:18:34;;;;;;;36.50;20.90;;;10.20;99.90;;;;;;5014960;28;20033;-83
2022/12/22 06:21:00;;;;;;;30.53;19.17;;;10.20;99.90;;;;;;5033819;28;20471;-84
2022/12/22 06:23:26;;;;;;;40.47;20.03;;;10.20;99.90;;;;;;5034011;28;20592;-83
2022/12/22 06:25:59;;;;;;;35.77;21.17;;;10.20;99.90;;;;;;5033237;28;20040;-85
2022/12/22 06:28:24;;;;;;;33.20;20.77;;;10.10;99.90;;;;;;5033668;28;20072;-84
2022/12/22 06:30:50;;;;;;;31.37;19.90;;;10.10;99.90;;;;;;5032211;28;20034;-84
2022/12/22 06:33:16;;;;;;;37.53;21.63;;;10.10;99.90;;;;;;5032114;28;20028;-84
2022/12/22 06:35:42;;;;;;;34.17;19.60;;;10.10;99.90;;;;;;5033604;28;20029;-84
2022/12/22 06:38:08;;;;;;;34.77;19.57;;;10.10;99.90;;;;;;4998822;28;20077;-82
2022/12/22 06:40:33;;;;;;;33.70;19.07;;;10.10;99.90;;;;;;5031801;28;20492;-82
2022/12/22 06:43:07;;;;;;;31.47;18.30;;;10.10;99.90;;;;;;5048281;28;20045;-83
2022/12/22 06:45:37;;;;;;;29.73;17.17;;;10.10;99.90;;;;;;5033089;28;20030;-82
2022/12/22 06:48:03;;;;;;;33.17;17.80;;;10.10;99.90;;;;;;5032700;28;20030;-83
2022/12/22 06:50:29;;;;;;;30.30;17.03;;;10.10;99.90;;;;;;5032232;28;20036;-82
2022/12/22 06:52:55;;;;;;;30.73;17.10;;;10.10;99.90;;;;;;5047924;28;20486;-83
2022/12/22 06:55:21;;;;;;;30.97;16.40;;;10.10;99.90;;;;;;5031627;28;20502;-82
2022/12/22 06:57:46;;;;;;;30.40;15.93;;;10.10;99.90;;;;;;5032686;28;20462;-82
2022/12/22 07:00:13;;;;;;;35.30;17.83;;;10.10;99.90;;;;;;5031217;28;20425;-83
2022/12/22 07:02:38;;;;;;;30.80;17.30;;;10.10;99.90;;;;;;4998579;28;20138;-82
2022/12/22 07:05:04;;;;;;;30.33;16.27;;;10.10;99.90;;;;;;5031256;28;20057;-82
2022/12/22 07:07:30;;;;;;;27.97;15.70;;;10.00;99.90;;;;;;5031132;28;20040;-82
2022/12/22 07:09:55;;;;;;;31.37;15.70;;;10.10;99.90;;;;;;5034806;28;20044;-83
2022/12/22 07:12:22;;;;;;;30.03;15.07;;;10.00;99.90;;;;;;5018923;28;20429;-82
2022/12/22 07:14:48;;;;;;;29.83;15.27;;;10.00;99.90;;;;;;5035475;28;20032;-81
2022/12/22 07:17:13;;;;;;;26.17;14.73;;;10.00;99.90;;;;;;5036289;28;20397;-83
2022/12/22 07:19:39;;;;;;;26.53;13.73;;;10.00;99.90;;;;;;5017959;28;20022;-80
2022/12/22 07:22:04;;;;;;;27.30;14.93;;;10.00;99.90;;;;;;5018657;28;20033;-83
2022/12/22 07:24:30;;;;;;;30.50;14.83;;;10.00;99.90;;;;;;5034502;28;20393;-81
2022/12/22 07:26:56;;;;;;;23.10;13.10;;;10.00;99.90;;;;;;5018631;28;20056;-84
2022/12/22 07:29:22;;;;;;;28.27;15.50;;;9.90;99.90;;;;;;5035395;28;20474;-85
2022/12/22 07:31:47;;;;;;;26.40;14.43;;;9.90;99.90;;;;;;5037669;28;20063;-84
2022/12/22 07:34:13;;;;;;;25.10;14.53;;;9.90;99.90;;;;;;5001994;28;20386;-84
2022/12/22 07:36:39;;;;;;;26.20;14.10;;;9.90;99.90;;;;;;5018219;28;20398;-84
2022/12/22 07:39:05;;;;;;;24.77;14.23;;;9.90;99.90;;;;;;5018769;28;20049;-83
2022/12/22 07:44:15;;;;;;;25.85;15.40;;;9.90;99.90;;;;;;5028391;28;20063;-84
2022/12/22 07:46:41;;;;;;;27.60;14.63;;;9.90;99.90;;;;;;5032879;28;20025;-82
2022/12/22 07:51:51;;;;;;;35.90;17.73;;;9.80;99.90;;;;;;5034736;28;20068;-84
2022/12/22 07:54:17;;;;;;;33.67;19.60;;;9.90;99.90;;;;;;5035828;28;20053;-83
2022/12/22 07:56:45;;;;;;;39.50;20.63;;;9.80;99.90;;;;;;5034175;28;20029;-83
2022/12/22 07:59:11;;;;;;;39.07;20.20;;;9.80;99.90;;;;;;5000729;28;20021;-83
2022/12/22 08:01:38;;;;;;;39.07;21.17;;;9.80;99.90;;;;;;5035027;28;20033;-84
2022/12/22 08:04:04;;;;;;;41.43;21.70;;;9.80;99.90;;;;;;5035135;28;20041;-83
2022/12/22 08:06:32;;;;;;;41.83;21.40;;;9.80;99.90;;;;;;5034589;28;20025;-85
2022/12/22 08:08:58;;;;;;;44.10;22.77;;;9.80;99.90;;;;;;5034180;28;20018;-83
2022/12/22 08:11:24;;;;;;;42.80;22.90;;;9.80;99.90;;;;;;5051387;28;20036;-83
2022/12/22 08:13:49;;;;;;;43.77;22.83;;;9.80;99.90;;;;;;5050644;28;20120;-83
2022/12/22 08:16:16;;;;;;;49.30;22.80;;;9.80;99.90;;;;;;5034137;28;20034;-82
2022/12/22 08:18:43;;;;;;;47.03;23.37;;;9.80;99.90;;;;;;5017475;28;20608;-83
2022/12/22 08:21:09;;;;;;;48.23;23.90;;;9.80;99.90;;;;;;5031285;28;20065;-84
2022/12/22 08:23:35;;;;;;;46.23;23.00;;;9.80;99.90;;;;;;5032673;28;20392;-84
2022/12/22 08:26:04;;;;;;;37.67;21.37;;;9.80;99.90;;;;;;5033422;28;20388;-84
2022/12/22 08:28:32;;;;;;;44.50;22.20;;;9.80;99.90;;;;;;5033742;28;20079;-84
2022/12/22 08:31:00;;;;;;;44.47;21.13;;;9.80;99.90;;;;;;5034689;28;20381;-84
2022/12/22 08:33:26;;;;;;;37.97;19.67;;;9.80;99.90;;;;;;5035259;28;20021;-82
2022/12/22 08:35:52;;;;;;;41.37;20.90;;;9.80;99.90;;;;;;5015048;28;20087;-83
2022/12/22 08:38:18;;;;;;;39.03;20.23;;;9.80;99.90;;;;;;5034635;28;20056;-84
2022/12/22 08:40:44;;;;;;;41.70;19.57;;;9.80;99.90;;;;;;5049970;28;20033;-85
2022/12/22 08:43:11;;;;;;;40.17;20.17;;;9.80;99.90;;;;;;5033769;28;20362;-85
2022/12/22 08:45:36;;;;;;;40.40;20.17;;;9.80;99.90;;;;;;5032663;28;20148;-85
2022/12/22 08:48:02;;;;;;;37.70;18.70;;;9.80;99.90;;;;;;5033561;28;20501;-84
2022/12/22 08:50:28;;;;;;;41.07;20.17;;;9.80;99.90;;;;;;4998498;28;20374;-79
2022/12/22 08:53:01;;;;;;;39.10;18.83;;;9.90;99.90;;;;;;5045642;28;20029;-84
2022/12/22 08:55:27;;;;;;;39.50;20.67;;;9.90;99.90;;;;;;5034608;28;20026;-84
2022/12/22 08:57:53;;;;;;;37.37;18.03;;;9.90;99.90;;;;;;5033141;28;20036;-85
2022/12/22 09:00:19;;;;;;;41.07;20.23;;;9.80;99.90;;;;;;5033479;28;20536;-86
2022/12/22 09:02:44;;;;;;;44.83;24.10;;;9.80;99.90;;;;;;5034682;28;20042;-87
2022/12/22 09:05:10;;;;;;;45.07;22.87;;;9.80;99.90;;;;;;5034260;28;20470;-86
2022/12/22 09:07:36;;;;;;;48.73;24.07;;;9.80;99.90;;;;;;5017592;28;20037;-87
2022/12/22 09:10:01;;;;;;;48.60;22.30;;;9.80;99.90;;;;;;5034473;28;20034;-84
2022/12/22 09:12:27;;;;;;;43.20;21.50;;;9.80;99.90;;;;;;5050397;28;20033;-87
2022/12/22 09:14:53;;;;;;;47.00;21.07;;;9.80;99.90;;;;;;5016207;28;20485;-88
2022/12/22 09:17:18;;;;;;;48.87;22.37;;;9.80;99.90;;;;;;5035257;28;20026;-87
2022/12/22 09:19:44;;;;;;;46.40;21.57;;;9.80;99.90;;;;;;5017504;28;20030;-87
2022/12/22 09:22:10;;;;;;;43.40;20.93;;;9.80;99.90;;;;;;5017544;28;20076;-88
2022/12/22 09:24:36;;;;;;;43.20;20.73;;;9.80;99.90;;;;;;5016603;28;20048;-86
2022/12/22 09:27:02;;;;;;;42.80;20.77;;;9.80;99.90;;;;;;5033547;28;20130;-87
2022/12/22 09:29:28;;;;;;;42.83;19.70;;;9.70;99.90;;;;;;5033331;28;20120;-87
2022/12/22 09:31:53;;;;;;;40.43;19.30;;;9.70;99.90;;;;;;5049598;28;20120;-85
2022/12/22 09:34:19;;;;;;;39.07;19.37;;;9.80;99.90;;;;;;5017268;28;20541;-86
2022/12/22 09:36:46;;;;;;;35.87;18.43;;;9.80;99.90;;;;;;5035030;28;20213;-90
2022/12/22 09:39:11;;;;;;;44.43;18.70;;;9.90;99.90;;;;;;5034740;28;20496;-90
2022/12/22 09:41:50;;;;;;;36.83;18.30;;;10.00;99.90;;;;;;5017973;28;20029;-89
2022/12/22 09:44:24;;;;;;;37.27;17.40;;;10.20;99.90;;;;;;5034120;28;20041;-90
2022/12/22 09:46:52;;;;;;;37.93;16.83;;;10.30;99.90;;;;;;5049036;28;20025;-87
2022/12/22 09:49:19;;;;;;;39.73;18.13;;;10.30;99.90;;;;;;5034822;28;20036;-88
2022/12/22 09:52:03;;;;;;;38.47;16.57;;;10.20;99.90;;;;;;5033805;28;20033;-87
2022/12/22 09:54:29;;;;;;;;;;;10.20;99.90;;;;;;5034125;28;20033;-87
2022/12/22 09:56:56;;;;;;;40.60;17.73;;;10.20;99.90;;;;;;5050118;28;19992;-88
2022/12/22 09:59:25;;;;;;;39.90;17.40;;;10.10;99.90;;;;;;5034732;28;20030;-86
2022/12/22 10:02:02;;;;;;;40.57;18.07;;;10.10;99.90;;;;;;5034969;28;20377;-89
2022/12/22 10:04:49;;;;;;;36.30;16.67;;;10.10;99.90;;;;;;5033114;28;20046;-89
2022/12/22 10:07:28;;;;;;;27.93;13.40;;;10.20;99.90;;;;;;5050109;28;20038;-89
2022/12/22 10:09:54;;;;;;;33.27;13.77;;;10.40;99.90;;;;;;5050243;28;20040;-88
2022/12/22 10:12:22;;;;;;;33.30;13.10;;;10.40;99.90;;;;;;5033799;28;20037;-88
2022/12/22 10:14:50;;;;;;;28.23;13.13;;;10.30;99.90;;;;;;5033557;28;20116;-89
2022/12/22 10:17:19;;;;;;;29.33;11.83;;;10.20;99.90;;;;;;5034521;28;20044;-89
2022/12/22 10:19:46;;;;;;;30.80;13.20;;;10.00;99.90;;;;;;5036574;28;20025;-88
2022/12/22 10:22:27;;;;;;;31.53;13.07;;;10.00;99.90;;;;;;5026455;28;20127;-88
2022/12/22 10:24:53;;;;;;;28.23;11.57;;;10.00;99.90;;;;;;5043309;28;20036;-89
2022/12/22 10:27:21;;;;;;;30.37;12.10;;;10.10;99.90;;;;;;5041229;28;20030;-88
2022/12/22 10:29:47;;;;;;;29.30;12.37;;;10.10;99.90;;;;;;5040448;28;20026;-89
2022/12/22 10:32:16;;;;;;;29.43;12.93;;;10.10;99.90;;;;;;5040529;28;20036;-87
2022/12/22 10:35:17;;;;;;;26.77;11.80;;;10.10;99.90;;;;;;5039972;28;20030;-89
2022/12/22 10:37:42;;;;;;;25.90;11.90;;;10.00;99.90;;;;;;4981268;28;20418;-89
2022/12/22 10:40:13;;;;;;;24.57;10.70;;;10.10;99.90;;;;;;5031878;28;20105;-89
2022/12/22 10:42:44;;;;;;;24.20;11.07;;;10.10;99.90;;;;;;5041346;28;20040;-89
2022/12/22 10:45:20;;;;;;;21.70;9.87;;;10.10;99.90;;;;;;5042170;28;20026;-89
2022/12/22 10:47:51;;;;;;;23.10;11.63;;;10.10;99.90;;;;;;5041754;28;20021;-89
2022/12/22 10:50:18;;;;;;;25.67;12.00;;;10.20;99.90;;;;;;5039589;28;20032;-88
2022/12/22 10:52:57;;;;;;;26.70;12.43;;;10.10;99.90;;;;;;5037055;28;20029;-88
2022/12/22 10:55:27;;;;;;;29.40;12.87;;;10.10;99.90;;;;;;5037295;28;20433;-90
2022/12/22 10:58:09;;;;;;;22.00;11.00;;;10.00;99.90;;;;;;5038107;28;20017;-92
2022/12/22 11:00:36;;;;;;;26.70;10.67;;;10.00;99.90;;;;;;5053746;28;20029;-90
2022/12/22 11:03:03;;;;;;;18.90;9.20;;;10.10;99.90;;;;;;5038425;28;20056;-89
2022/12/22 11:05:30;;;;;;;18.73;9.33;;;10.20;99.90;;;;;;5021617;28;20484;-90
2022/12/22 11:07:59;;;;;;;22.53;9.90;;;10.30;99.90;;;;;;5037413;28;20029;-90
2022/12/22 11:10:31;;;;;;;23.90;10.27;;;10.30;99.90;;;;;;5037534;28;20021;-90
2022/12/22 11:13:13;;;;;;;20.93;9.73;;;10.30;99.90;;;;;;5037222;28;20116;-89
2022/12/22 11:16:09;;;;;;;21.00;10.97;;;10.50;99.90;;;;;;5018486;28;20482;-90
2022/12/22 11:18:55;;;;;;;19.23;10.82;;;10.70;99.90;;;;;;5018050;28;20045;-89
2022/12/22 11:21:38;;;;;;;25.95;13.50;;;10.80;99.90;;;;;;5017558;28;20084;-89
2022/12/22 11:24:33;;;;;;;26.38;14.05;;;10.90;99.90;;;;;;5036723;28;20120;-89
2022/12/22 11:27:20;;;;;;;26.60;13.02;;;11.00;99.90;;;;;;5028845;28;20043;-92
2022/12/22 11:30:07;;;;;;;28.95;13.40;;;11.00;99.90;;;;;;5036053;28;20041;-89
2022/12/22 11:32:35;;;;;;;25.90;13.82;;;11.00;99.90;;;;;;5037921;28;20026;-90
2022/12/22 11:35:18;;;;;;;29.08;14.90;;;11.00;99.90;;;;;;5052837;28;20040;-89
2022/12/22 11:37:49;;;;;;;26.88;15.40;;;10.90;99.90;;;;;;5036353;28;20095;-88
2022/12/22 11:40:14;;;;;;;33.83;17.45;;;10.80;99.90;;;;;;5037515;28;20025;-90
2022/12/22 11:43:11;;;;;;;32.35;18.30;;;10.70;99.90;;;;;;5036202;28;20156;-91
2022/12/22 11:46:08;;;;;;;33.17;17.60;;;10.60;99.90;;;;;;5036310;28;20056;-87
2022/12/22 11:49:12;;;;;;;37.23;18.77;;;10.50;99.90;;;;;;5035820;28;20040;-90
2022/12/22 11:52:23;;;;;;;37.17;20.73;;;10.50;99.90;;;;;;4984696;28;20027;-89
2022/12/22 11:54:57;;;;;;;34.60;18.47;;;10.50;99.90;;;;;;5004945;28;20137;-89
2022/12/22 11:57:41;;;;;;;40.07;20.13;;;10.50;99.90;;;;;;5051557;28;20462;-89
2022/12/22 12:00:07;;;;;;;32.35;16.75;;;10.50;99.90;;;;;;5035675;28;20021;-89
2022/12/22 12:03:04;;;;;;;29.17;16.00;;;10.70;99.90;;;;;;5035956;28;20036;-89
2022/12/22 12:05:54;;;;;;;26.70;15.60;;;11.00;99.90;;;;;;5050990;28;20029;-90
2022/12/22 12:08:50;;;;;;;27.45;15.07;;;11.20;99.90;;;;;;5050773;28;20030;-86
2022/12/22 12:11:42;;;;;;;25.90;14.52;;;11.40;99.90;;;;;;5034394;28;20049;-88
2022/12/22 12:14:16;;;;;;;26.42;14.20;;;11.50;99.90;;;;;;5035434;28;20056;-89
2022/12/22 12:16:50;;;;;;;26.10;15.30;;;11.50;99.90;;;;;;5051434;28;20116;-86
2022/12/22 12:19:43;;;;;;;;;;;11.60;99.90;;;;;;5051549;28;20075;-89
2022/12/22 12:22:17;;;;;;;21.95;11.70;;;11.50;99.90;;;;;;5027533;28;19942;-87
2022/12/22 12:24:48;;;;;;;;;;;11.60;99.90;;;;;;5035858;28;20037;-88
2022/12/22 12:27:51;;;;;;;21.52;10.65;;;11.60;99.90;;;;;;5036682;28;19999;-89
2022/12/22 12:30:18;;;;;;;18.35;9.93;;;11.60;99.90;;;;;;5037244;28;20025;-90
2022/12/22 12:32:56;;;;;;;19.08;9.35;;;11.70;99.90;;;;;;5036399;28;20104;-88
2022/12/22 12:35:41;;;;;;;22.25;10.68;;;11.70;99.90;;;;;;5035514;28;20040;-90
2022/12/22 12:38:20;;;;;;;22.17;10.52;;;11.60;99.90;;;;;;5035927;28;20056;-90
2022/12/22 12:41:17;;;;;;;19.50;10.32;;;11.60;99.90;;;;;;5034955;28;20461;-90
2022/12/22 12:43:43;;;;;;;21.00;11.30;;;11.60;99.90;;;;;;5036049;28;20087;-90
2022/12/22 12:46:41;;;;;;;22.17;9.95;;;11.60;99.90;;;;;;5020046;28;20103;-90
2022/12/22 12:49:37;;;;;;;21.08;10.95;;;11.60;99.90;;;;;;5036965;28;20488;-89
2022/12/22 12:52:04;;;;;;;19.17;10.90;;;11.70;99.90;;;;;;5053245;28;20080;-91
2022/12/22 12:54:32;;;;;;;19.83;10.80;;;11.80;99.90;;;;;;5019403;28;20021;-91
2022/12/22 12:57:08;;;;;;;16.48;8.80;;;11.80;99.90;;;;;;5035713;28;20030;-85
2022/12/22 12:59:55;;;;;;;18.30;9.48;;;11.80;99.90;;;;;;5037231;28;20474;-90
2022/12/22 13:02:30;;;;;;;17.02;8.52;;;11.70;99.90;;;;;;5035200;28;20120;-85
2022/12/22 13:05:14;;;;;;;17.10;9.25;;;11.60;98.80;;;;;;5051734;28;20505;-90
2022/12/22 13:08:08;;;;;;;17.15;9.32;;;11.50;98.50;;;;;;5051052;28;20083;-90
2022/12/22 13:10:38;;;;;;;16.08;8.82;;;11.40;98.20;;;;;;5051444;28;20033;-90
2022/12/22 13:13:05;;;;;;;19.83;9.95;;;11.50;98.20;;;;;;5051605;28;20545;-89
2022/12/22 13:15:36;;;;;;;19.48;9.80;;;11.50;97.40;;;;;;5035536;28;20033;-90
2022/12/22 13:18:08;;;;;;;19.48;11.40;;;11.40;97.30;;;;;;5034706;28;20474;-91
2022/12/22 13:20:36;;;;;;;18.65;10.73;;;11.40;97.00;;;;;;5034444;28;20033;-87
2022/12/22 13:23:10;;;;;;;22.33;12.10;;;11.30;97.30;;;;;;5035490;28;20045;-90
2022/12/22 13:25:43;;;;;;;21.05;11.95;;;11.30;97.20;;;;;;5036212;28;20056;-90
2022/12/22 13:28:16;;;;;;;23.65;12.50;;;11.30;97.20;;;;;;5036341;28;20029;-90
2022/12/22 13:30:47;;;;;;;23.35;13.80;;;11.20;97.30;;;;;;5035892;28;20423;-92
2022/12/22 13:33:17;;;;;;;24.80;14.32;;;11.20;97.20;;;;;;5035434;28;20073;-90
2022/12/22 13:35:44;;;;;;;29.73;15.85;;;11.10;97.20;;;;;;5035252;28;20037;-90
2022/12/22 13:38:29;;;;;;;24.67;14.98;;;11.00;97.30;;;;;;5020157;28;20064;-89
2022/12/22 13:40:57;;;;;;;29.17;15.63;;;11.00;97.60;;;;;;5035085;28;20018;-90
2022/12/22 13:43:24;;;;;;;26.10;15.43;;;10.90;97.80;;;;;;5036250;28;20037;-90
2022/12/22 13:45:54;;;;;;;29.50;17.13;;;10.90;97.90;;;;;;5034445;28;20055;-90
2022/12/22 13:48:44;;;;;;;31.93;19.10;;;10.80;97.90;;;;;;5035110;28;20029;-85
2022/12/22 13:51:31;;;;;;;30.27;18.83;;;10.80;98.10;;;;;;5027621;28;20029;-90
2022/12/22 13:54:12;;;;;;;29.70;18.33;;;10.70;98.40;;;;;;5035532;28;20036;-89
2022/12/22 13:57:12;;;;;;;31.20;19.27;;;10.70;98.70;;;;;;5033967;28;20024;-90
2022/12/22 13:59:47;;;;;;;31.77;19.73;;;10.70;98.80;;;;;;5031151;28;20124;-89
2022/12/22 14:02:16;;;;;;;34.03;20.93;;;10.70;98.90;;;;;;5032990;28;20068;-85
2022/12/22 14:05:01;;;;;;;33.43;20.67;;;10.70;99.00;;;;;;5030723;28;20493;-85
2022/12/22 14:07:26;;;;;;;31.30;20.43;;;10.70;99.00;;;;;;5012522;28;20486;-85
2022/12/22 14:09:55;;;;;;;36.00;20.67;;;10.70;99.10;;;;;;5029584;28;20037;-85
2022/12/22 14:12:24;;;;;;;29.77;19.30;;;10.60;99.20;;;;;;5014439;28;20026;-85
2022/12/22 14:14:52;;;;;;;36.60;23.07;;;10.60;99.30;;;;;;5036655;28;20095;-85
2022/12/22 14:17:33;;;;;;;32.03;21.60;;;10.60;99.40;;;;;;5033567;28;20504;-85
2022/12/22 14:20:21;;;;;;;33.20;21.07;;;10.50;99.60;;;;;;5033094;28;20543;-85
2022/12/22 14:22:56;;;;;;;33.67;21.50;;;10.50;99.70;;;;;;5034049;28;20037;-86
2022/12/22 14:25:27;;;;;;;31.43;21.63;;;10.50;99.70;;;;;;5031865;28;20029;-84
2022/12/22 14:27:55;;;;;;;34.60;22.30;;;10.50;99.90;;;;;;5032485;28;20549;-85
2022/12/22 14:30:28;;;;;;;35.87;24.20;;;10.50;99.90;;;;;;5032361;28;20124;-85
2022/12/22 14:32:55;;;;;;;38.57;24.63;;;10.40;99.90;;;;;;5031704;28;20017;-85
2022/12/22 14:35:25;;;;;;;33.50;22.37;;;10.40;99.90;;;;;;5032294;28;20033;-86
2022/12/22 14:37:52;;;;;;;36.07;21.80;;;10.40;99.90;;;;;;5032126;28;20095;-85
2022/12/22 14:40:38;;;;;;;35.50;22.77;;;10.40;99.90;;;;;;5032307;28;20030;-86
2022/12/22 14:43:12;;;;;;;42.57;23.70;;;10.30;99.90;;;;;;5033215;28;20049;-86
2022/12/22 14:45:38;;;;;;;31.83;21.90;;;10.30;99.90;;;;;;5034839;28;20053;-85
2022/12/22 14:48:07;;;;;;;34.00;22.07;;;10.30;99.90;;;;;;5019514;28;20032;-87
2022/12/22 14:50:33;;;;;;;34.57;22.53;;;10.30;99.90;;;;;;5037153;28;20021;-85
2022/12/22 14:53:02;;;;;;;38.07;22.43;;;10.30;99.90;;;;;;5021551;28;20030;-85
2022/12/22 14:55:40;;;;;;;29.93;20.77;;;10.30;99.90;;;;;;5036932;28;20466;-86
2022/12/22 14:58:09;;;;;;;35.13;23.73;;;10.30;99.90;;;;;;5044108;28;20048;-87
2022/12/22 15:01:02;;;;;;;35.33;22.17;;;10.30;99.90;;;;;;5039657;28;20025;-86
2022/12/22 15:03:33;;;;;;;36.77;21.97;;;10.30;99.90;;;;;;5030179;28;20047;-86
2022/12/22 15:06:20;;;;;;;38.03;23.47;;;10.30;99.90;;;;;;5039133;28;20030;-85
2022/12/22 15:08:46;;;;;;;36.00;21.67;;;10.30;99.90;;;;;;5038719;28;20033;-85
2022/12/22 15:11:17;;;;;;;33.27;23.10;;;10.20;99.90;;;;;;5037332;28;20036;-85
2022/12/22 15:13:46;;;;;;;33.27;21.97;;;10.20;99.90;;;;;;5031847;28;20032;-85
2022/12/22 15:16:18;;;;;;;37.17;22.67;;;10.20;99.90;;;;;;5032945;28;20021;-85
2022/12/22 15:18:45;;;;;;;34.13;22.50;;;10.20;99.90;;;;;;5031683;28;20495;-85
2022/12/22 15:21:13;;;;;;;35.93;22.40;;;10.20;99.90;;;;;;5032959;28;20389;-86
2022/12/22 15:23:39;;;;;;;38.13;24.83;;;10.20;99.90;;;;;;5031789;28;20041;-86
2022/12/22 15:26:05;;;;;;;35.93;23.00;;;10.20;99.90;;;;;;5015322;28;20037;-85
2022/12/22 15:28:31;;;;;;;35.03;22.63;;;10.20;99.90;;;;;;5016043;28;20483;-86
2022/12/22 15:31:01;;;;;;;34.47;21.90;;;10.10;99.90;;;;;;5035277;28;20440;-87
2022/12/22 15:33:28;;;;;;;32.63;21.50;;;10.10;99.90;;;;;;5036364;28;20030;-86
2022/12/22 15:35:54;;;;;;;31.03;20.90;;;10.10;99.90;;;;;;5033368;28;20022;-87
2022/12/22 15:38:22;;;;;;;32.87;22.37;;;10.10;99.90;;;;;;5035089;28;20444;-86
2022/12/22 15:40:48;;;;;;;38.70;23.13;;;10.10;99.90;;;;;;5036277;28;20030;-86
2022/12/22 15:43:14;;;;;;;36.37;21.67;;;10.00;99.90;;;;;;5034255;28;20033;-85
2022/12/22 15:45:41;;;;;;;33.40;22.47;;;10.00;99.90;;;;;;5035018;28;20017;-87
2022/12/22 15:48:30;;;;;;;36.00;22.10;;;10.00;99.90;;;;;;5036240;28;20028;-87
2022/12/22 15:50:56;;;;;;;32.13;21.73;;;10.00;99.90;;;;;;5035840;28;20397;-87
2022/12/22 15:53:22;;;;;;;33.27;22.10;;;10.00;99.90;;;;;;5035654;28;20030;-87
2022/12/22 15:55:52;;;;;;;31.90;21.30;;;10.00;99.90;;;;;;5018558;28;20474;-86
2022/12/22 15:58:21;;;;;;;34.00;21.87;;;10.00;99.90;;;;;;5035167;28;20175;-86
2022/12/22 16:00:47;;;;;;;31.20;20.90;;;10.00;99.90;;;;;;5035778;28;20061;-85
2022/12/22 16:03:13;;;;;;;33.73;19.07;;;10.00;99.90;;;;;;5018741;28;20076;-87
2022/12/22 16:05:40;;;;;;;31.63;20.20;;;10.00;99.90;;;;;;5035198;28;20030;-87
2022/12/22 16:08:15;;;;;;;30.10;20.23;;;10.00;99.90;;;;;;5019056;28;20163;-87
2022/12/22 16:10:41;;;;;;;29.30;19.40;;;9.90;99.90;;;;;;5029843;28;20026;-88
2022/12/22 16:13:12;;;;;;;30.00;19.80;;;9.90;99.90;;;;;;5021792;28;20481;-88
2022/12/22 16:15:38;;;;;;;29.40;18.73;;;9.90;99.90;;;;;;5023175;28;20029;-89
2022/12/22 16:18:05;;;;;;;26.90;18.17;;;9.90;99.90;;;;;;5018596;28;20478;-88
2022/12/22 16:20:36;;;;;;;30.73;19.07;;;9.90;99.90;;;;;;5036146;28;20106;-88
2022/12/22 16:23:03;;;;;;;32.13;19.73;;;9.80;99.90;;;;;;5028623;28;20030;-88
2022/12/22 16:25:37;;;;;;;30.87;19.53;;;9.80;99.90;;;;;;4999031;28;20061;-87
2022/12/22 16:28:04;;;;;;;30.17;18.00;;;9.90;99.90;;;;;;5016976;28;20037;-88